createdAt,value
2022-10-31T00:00:02.731Z,1.77
2022-10-31T00:03:34.020Z,1.50
2022-10-31T00:06:36.339Z,1.80
2022-10-31T00:09:38.906Z,1.75
2022-10-31T00:12:41.830Z,1.50
2022-10-31T00:15:43.848Z,1.52
2022-10-31T00:18:50.462Z,1.50
2022-10-31T00:21:55.727Z,1.60
2022-10-31T00:24:58.115Z,1.92
2022-10-31T00:28:02.079Z,1.55
2022-10-31T00:31:07.690Z,1.40
2022-10-31T00:34:10.030Z,1.55
2022-10-31T00:37:12.545Z,1.92
2022-10-31T00:40:15.238Z,1.55
2022-10-31T00:43:19.118Z,1.63
2022-10-31T00:46:21.805Z,1.40
2022-10-31T00:49:26.645Z,1.40
2022-10-31T00:52:28.761Z,1.60
2022-10-31T00:55:31.193Z,1.45
2022-10-31T00:58:35.482Z,1.50
2022-10-31T01:01:38.202Z,1.70
2022-10-31T01:04:40.363Z,1.55
2022-10-31T01:07:43.631Z,1.38
2022-10-31T01:10:45.836Z,1.23
2022-10-31T01:13:50.953Z,1.35
2022-10-31T01:16:55.047Z,1.58
2022-10-31T01:19:58.926Z,1.52
2022-10-31T01:23:04.618Z,1.20
2022-10-31T01:26:15.952Z,1.65
2022-10-31T01:29:18.232Z,1.42
2022-10-31T01:32:21.054Z,1.20
2022-10-31T01:35:23.330Z,1.40
2022-10-31T01:38:26.385Z,1.20
2022-10-31T01:41:32.893Z,1.20
2022-10-31T01:44:34.969Z,1.50
2022-10-31T01:47:48.623Z,1.42
2022-10-31T01:50:54.466Z,1.17
2022-10-31T01:54:00.766Z,1.20
2022-10-31T01:57:05.666Z,1.13
2022-10-31T02:00:11.155Z,1.45
2022-10-31T02:03:18.354Z,1.30
2022-10-31T02:06:48.283Z,1.10
2022-10-31T02:09:51.925Z,1.20
2022-10-31T02:12:56.744Z,1.17
2022-10-31T02:16:00.282Z,1.30
2022-10-31T02:19:05.128Z,1.00
2022-10-31T02:25:41.647Z,1.15
2022-10-31T02:29:05.417Z,1.05
2022-10-31T02:32:49.412Z,1.00
2022-10-31T02:36:04.099Z,1.10
2022-10-31T02:42:52.229Z,1.00
2022-10-31T02:46:16.440Z,1.40
2022-10-31T02:52:40.228Z,1.00
2022-10-31T02:55:56.173Z,1.10
2022-10-31T02:59:05.279Z,1.33
2022-10-31T03:02:26.888Z,0.90
2022-10-31T03:05:42.268Z,1.00
2022-10-31T03:12:03.333Z,0.82
2022-10-31T03:15:31.629Z,1.50
2022-10-31T03:19:14.319Z,1.20
2022-10-31T03:22:25.575Z,1.08
2022-10-31T03:25:28.402Z,1.10
2022-10-31T03:28:46.512Z,1.00
2022-10-31T03:31:48.561Z,1.17
2022-10-31T03:34:52.162Z,1.20
2022-10-31T03:37:56.274Z,0.88
2022-10-31T03:41:01.535Z,1.40
2022-10-31T03:44:15.063Z,0.77
2022-10-31T03:47:18.778Z,0.88
2022-10-31T03:50:29.378Z,0.90
2022-10-31T03:53:40.475Z,0.90
2022-10-31T03:56:49.177Z,1.10
2022-10-31T04:00:01.549Z,0.80
2022-10-31T04:03:12.788Z,1.05
2022-10-31T04:06:21.241Z,0.63
2022-10-31T04:09:27.680Z,0.82
2022-10-31T04:12:32.464Z,0.90
2022-10-31T04:15:55.248Z,1.00
2022-10-31T04:18:59.812Z,0.90
2022-10-31T04:22:02.645Z,0.85
2022-10-31T04:25:05.727Z,1.30
2022-10-31T04:28:07.874Z,1.00
2022-10-31T04:31:13.129Z,0.88
2022-10-31T04:34:18.264Z,1.10
2022-10-31T04:37:20.934Z,1.02
2022-10-31T04:40:24.025Z,0.93
2022-10-31T04:43:45.753Z,1.15
2022-10-31T04:46:49.360Z,1.35
2022-10-31T04:49:52.572Z,0.80
2022-10-31T04:52:55.065Z,0.90
2022-10-31T04:56:02.269Z,1.00
2022-10-31T04:59:13.351Z,1.15
2022-10-31T05:02:27.004Z,1.25
2022-10-31T05:05:32.788Z,0.88
2022-10-31T05:08:37.686Z,0.90
2022-10-31T05:11:44.276Z,1.10
2022-10-31T05:15:10.126Z,1.20
2022-10-31T05:18:37.991Z,0.90
2022-10-31T05:22:09.179Z,0.90
2022-10-31T05:25:12.057Z,1.10
2022-10-31T05:28:14.513Z,1.23
2022-10-31T05:31:17.114Z,0.93
2022-10-31T05:34:20.276Z,0.85
2022-10-31T05:37:54.584Z,0.90
2022-10-31T05:41:06.972Z,1.00
2022-10-31T05:44:09.914Z,1.40
2022-10-31T05:47:26.570Z,1.10
2022-10-31T05:50:32.729Z,0.93
2022-10-31T05:53:44.670Z,1.00
2022-10-31T05:56:48.298Z,1.00
2022-10-31T05:59:55.121Z,1.35
2022-10-31T06:03:01.162Z,1.15
2022-10-31T06:06:16.828Z,0.90
2022-10-31T06:09:18.987Z,1.20
2022-10-31T06:12:22.317Z,1.10
2022-10-31T06:15:43.429Z,1.00
2022-10-31T06:18:49.841Z,1.27
2022-10-31T06:21:51.765Z,1.20
2022-10-31T06:24:54.084Z,1.50
2022-10-31T06:28:05.788Z,1.00
2022-10-31T06:31:28.777Z,1.30
2022-10-31T06:34:32.414Z,0.93
2022-10-31T06:37:34.907Z,1.40
2022-10-31T06:40:53.510Z,1.13
2022-10-31T06:44:05.065Z,1.33
2022-10-31T06:47:30.403Z,1.08
2022-10-31T06:50:37.720Z,0.90
2022-10-31T06:53:40.043Z,0.98
2022-10-31T06:56:48.295Z,1.42
2022-10-31T06:59:50.485Z,0.95
2022-10-31T07:03:08.110Z,1.30
2022-10-31T07:06:11.849Z,1.30
2022-10-31T07:09:15.665Z,1.10
2022-10-31T07:12:18.214Z,1.02
2022-10-31T07:15:33.814Z,1.38
2022-10-31T07:18:36.692Z,1.27
2022-10-31T07:21:39.326Z,1.30
2022-10-31T07:24:42.654Z,1.15
2022-10-31T07:28:04.371Z,1.48
2022-10-31T07:31:06.843Z,1.73
2022-10-31T07:34:09.546Z,1.98
2022-10-31T07:37:46.378Z,1.60
2022-10-31T07:40:53.417Z,1.67
2022-10-31T07:43:55.587Z,1.77
2022-10-31T07:47:03.932Z,1.58
2022-10-31T07:50:27.271Z,1.52
2022-10-31T07:53:48.574Z,1.88
2022-10-31T07:56:58.776Z,2.05
2022-10-31T08:00:01.242Z,1.92
2022-10-31T08:03:09.855Z,1.60
2022-10-31T08:06:50.938Z,1.42
2022-10-31T08:10:03.051Z,1.48
2022-10-31T08:16:20.114Z,1.67
2022-10-31T08:19:29.778Z,1.63
2022-10-31T08:22:31.921Z,1.70
2022-10-31T08:25:38.549Z,2.23
2022-10-31T08:28:41.282Z,1.80
2022-10-31T08:31:44.170Z,1.77
2022-10-31T08:35:05.479Z,1.67
2022-10-31T08:38:43.079Z,1.70
2022-10-31T08:41:46.642Z,1.63
2022-10-31T08:44:50.239Z,1.70
2022-10-31T08:48:00.539Z,2.00
2022-10-31T08:51:03.160Z,1.95
2022-10-31T08:54:06.983Z,2.13
2022-10-31T08:57:09.568Z,1.73
2022-10-31T09:00:18.847Z,2.30
2022-10-31T09:03:48.595Z,2.05
2022-10-31T09:07:19.745Z,2.35
2022-10-31T09:10:14.101Z,2.40
2022-10-31T09:13:21.095Z,2.30
2022-10-31T09:16:41.977Z,2.38
2022-10-31T09:19:50.941Z,2.42
2022-10-31T09:22:58.719Z,1.92
2022-10-31T09:26:02.527Z,2.05
2022-10-31T09:29:10.517Z,2.03
2022-10-31T09:32:14.587Z,2.72
2022-10-31T09:35:24.805Z,2.28
2022-10-31T09:38:30.137Z,2.80
2022-10-31T09:41:54.499Z,2.45
2022-10-31T09:45:28.775Z,2.13
2022-10-31T09:48:38.264Z,2.75
2022-10-31T09:52:23.165Z,2.35
2022-10-31T09:55:48.821Z,2.50
2022-10-31T09:59:02.510Z,2.63
2022-10-31T10:02:14.817Z,2.50
2022-10-31T10:05:38.612Z,2.78
2022-10-31T10:12:16.525Z,2.72
2022-10-31T10:15:22.228Z,2.78
2022-10-31T10:19:00.384Z,2.50
2022-10-31T10:22:24.333Z,2.72
2022-10-31T10:25:32.283Z,3.03
2022-10-31T10:28:40.097Z,2.28
2022-10-31T10:31:47.651Z,3.05
2022-10-31T10:34:58.589Z,2.65
2022-10-31T10:38:25.740Z,2.47
2022-10-31T10:41:34.425Z,2.25
2022-10-31T10:45:02.017Z,2.47
2022-10-31T10:48:36.810Z,2.55
2022-10-31T10:55:33.147Z,2.40
2022-10-31T10:58:37.617Z,2.75
2022-10-31T11:01:42.908Z,2.20
2022-10-31T11:04:48.895Z,2.85
2022-10-31T11:07:51.489Z,2.83
2022-10-31T11:11:18.360Z,2.47
2022-10-31T11:14:21.847Z,2.63
2022-10-31T11:17:39.927Z,2.78
2022-10-31T11:20:53.544Z,2.92
2022-10-31T11:24:11.256Z,2.47
2022-10-31T11:27:22.498Z,2.53
2022-10-31T11:30:24.596Z,2.67
2022-10-31T11:33:46.226Z,2.30
2022-10-31T11:36:50.029Z,2.40
2022-10-31T11:39:55.731Z,2.20
2022-10-31T11:43:00.441Z,2.28
2022-10-31T11:46:12.003Z,2.47
2022-10-31T11:49:24.380Z,2.15
2022-10-31T11:52:29.620Z,2.20
2022-10-31T11:55:44.069Z,2.22
2022-10-31T11:59:40.486Z,2.13
2022-10-31T12:02:52.868Z,2.10
2022-10-31T12:06:00.356Z,1.80
2022-10-31T12:09:04.140Z,2.15
2022-10-31T12:12:44.831Z,2.25
2022-10-31T12:15:55.376Z,2.47
2022-10-31T12:19:25.638Z,2.28
2022-10-31T12:22:46.847Z,2.33
2022-10-31T12:26:06.975Z,1.80
2022-10-31T12:29:56.305Z,1.70
2022-10-31T12:33:29.582Z,1.60
2022-10-31T12:37:03.431Z,1.80
2022-10-31T12:40:40.940Z,2.20
2022-10-31T12:44:11.245Z,1.88
2022-10-31T12:47:41.122Z,2.22
2022-10-31T12:51:29.344Z,2.20
2022-10-31T12:54:49.967Z,1.85
2022-10-31T12:58:00.033Z,2.00
2022-10-31T13:01:13.885Z,1.95
2022-10-31T13:04:38.526Z,2.05
2022-10-31T13:07:46.365Z,1.70
2022-10-31T13:10:57.176Z,1.83
2022-10-31T13:14:10.928Z,1.70
2022-10-31T13:17:23.010Z,2.10
2022-10-31T13:20:51.496Z,1.88
2022-10-31T13:24:00.420Z,1.70
2022-10-31T13:27:29.383Z,1.90
2022-10-31T13:30:39.516Z,2.00
2022-10-31T13:33:44.684Z,2.00
2022-10-31T13:36:51.807Z,2.72
2022-10-31T13:40:27.614Z,2.38
2022-10-31T13:43:44.390Z,1.85
2022-10-31T13:47:31.606Z,2.80
2022-10-31T13:50:39.171Z,2.40
2022-10-31T13:54:00.187Z,2.30
2022-10-31T13:57:19.394Z,2.08
2022-10-31T14:00:21.960Z,2.50
2022-10-31T14:03:57.530Z,2.78
2022-10-31T14:07:45.817Z,2.45
2022-10-31T14:11:22.621Z,2.70
